EZY44PM DTNH-EGGD
Flight info
| Callsign | EZY44PM |
|---|---|
| Flight time | N/A |
| Altitude | 36000 |
| Route | VAXAL1C VAXAL A411 TUC UA725 OSMAR DCT PIRIX DCT INDUM DCT UPDUT DCT CORSI DCT OMEDA DCT MERLU DCT PIGOS DCT BARSO DCT OKTET DCT GIPNO DCT BULOL DCT IDAVO DCT BAGBI DCT SIZZA DCT LAULY DCT BRY DCT CLM DCT KOPOR DCT KESAX DCT KUNAV T421 ICTAM L179 SAWPE |
| Aircraft | A320/M-SDE3FGHIRWY/LB1 |
Departure
| Time | 2026-04-25 15:02 |
|---|---|
| Airport | Enfidha - Hammamet International Airport (DTNH) |
Arrival
| Time | N/A |
|---|---|
| Airport | Bristol Airport (EGGD) |
| Time | Latitude | Longitude | Altitude | Speed | Heading |
|---|---|---|---|---|---|
| 2026-04-25 15:01 | 36.37958 | 10.45432 | 12300 ft | 349 kts | 338° |
| 2026-04-25 15:02 | 36.40235 | 10.44334 | 12926 ft | 354 kts | 339° |
| 2026-04-25 15:02 | 36.42557 | 10.43237 | 13561 ft | 360 kts | 339° |
| 2026-04-25 15:02 | 36.44919 | 10.42132 | 14158 ft | 365 kts | 339° |
| 2026-04-25 15:02 | 36.47304 | 10.41019 | 14771 ft | 367 kts | 339° |
| 2026-04-25 15:03 | 36.49701 | 10.39897 | 15416 ft | 369 kts | 339° |
| 2026-04-25 15:03 | 36.52111 | 10.38766 | 16062 ft | 371 kts | 339° |
| 2026-04-25 15:03 | 36.54534 | 10.37624 | 16713 ft | 373 kts | 338° |
| 2026-04-25 15:03 | 36.56971 | 10.36472 | 17285 ft | 377 kts | 338° |
| 2026-04-25 15:04 | 36.59428 | 10.35312 | 17878 ft | 380 kts | 338° |
| 2026-04-25 15:04 | 36.61909 | 10.34139 | 18459 ft | 383 kts | 338° |
| 2026-04-25 15:04 | 36.64412 | 10.32957 | 18936 ft | 386 kts | 338° |
| 2026-04-25 15:04 | 36.66931 | 10.31766 | 19449 ft | 388 kts | 338° |
| 2026-04-25 15:05 | 36.69462 | 10.30568 | 19934 ft | 390 kts | 338° |
| 2026-04-25 15:05 | 36.72004 | 10.29363 | 20457 ft | 392 kts | 338° |
| 2026-04-25 15:05 | 36.74557 | 10.28151 | 20960 ft | 394 kts | 338° |
| 2026-04-25 15:06 | 36.79695 | 10.25709 | 21959 ft | 397 kts | 338° |
| 2026-04-25 15:06 | 36.82289 | 10.24475 | 22351 ft | 401 kts | 338° |
| 2026-04-25 15:06 | 36.84919 | 10.23246 | 22785 ft | 404 kts | 340° |
| 2026-04-25 15:06 | 36.87645 | 10.22331 | 23238 ft | 407 kts | 344° |
| 2026-04-25 15:07 | 36.90368 | 10.21485 | 23683 ft | 409 kts | 344° |
| 2026-04-25 15:07 | 36.93173 | 10.20615 | 24064 ft | 411 kts | 344° |
| 2026-04-25 15:07 | 36.95954 | 10.19754 | 24468 ft | 412 kts | 344° |
| 2026-04-25 15:07 | 36.98731 | 10.18896 | 24901 ft | 412 kts | 343° |
| 2026-04-25 15:08 | 37.01476 | 10.18045 | 25282 ft | 413 kts | 343° |
| 2026-04-25 15:08 | 37.04267 | 10.17174 | 25672 ft | 414 kts | 343° |
| 2026-04-25 15:08 | 37.07074 | 10.16294 | 25963 ft | 417 kts | 343° |
| 2026-04-25 15:08 | 37.09903 | 10.15411 | 26285 ft | 420 kts | 343° |
| 2026-04-25 15:09 | 37.12740 | 10.14527 | 26629 ft | 422 kts | 343° |
| 2026-04-25 15:09 | 37.15596 | 10.13638 | 26982 ft | 424 kts | 343° |
| 2026-04-25 15:09 | 37.21342 | 10.11845 | 27661 ft | 427 kts | 343° |
| 2026-04-25 15:10 | 37.24226 | 10.10942 | 28002 ft | 428 kts | 343° |
| 2026-04-25 15:10 | 37.27126 | 10.10035 | 28321 ft | 430 kts | 343° |
| 2026-04-25 15:10 | 37.32966 | 10.08202 | 28862 ft | 435 kts | 343° |
| 2026-04-25 15:11 | 37.35910 | 10.07277 | 29130 ft | 438 kts | 343° |
| 2026-04-25 15:11 | 37.38867 | 10.06347 | 29422 ft | 439 kts | 343° |
| 2026-04-25 15:11 | 37.41841 | 10.05410 | 29715 ft | 441 kts | 343° |
| 2026-04-25 15:12 | 37.47802 | 10.03522 | 30296 ft | 442 kts | 343° |
| 2026-04-25 15:12 | 37.50783 | 10.02577 | 30636 ft | 441 kts | 343° |
| 2026-04-25 15:12 | 37.53738 | 10.01643 | 30957 ft | 441 kts | 343° |
| 2026-04-25 15:12 | 37.54740 | 10.01326 | 31060 ft | 441 kts | 344° |
| 2026-04-25 15:13 | 37.59690 | 9.99759 | 31535 ft | 441 kts | 344° |
| 2026-04-25 15:13 | 37.65636 | 9.97873 | 32153 ft | 440 kts | 343° |
| 2026-04-25 15:13 | 37.68606 | 9.96929 | 32468 ft | 440 kts | 343° |
| 2026-04-25 15:14 | 37.71571 | 9.95983 | 32780 ft | 439 kts | 343° |
| 2026-04-25 15:14 | 37.74529 | 9.95040 | 33094 ft | 438 kts | 343° |
| 2026-04-25 15:14 | 37.77486 | 9.94100 | 33425 ft | 438 kts | 344° |
| 2026-04-25 15:14 | 37.80445 | 9.93159 | 33678 ft | 439 kts | 344° |
| 2026-04-25 15:15 | 37.83405 | 9.92217 | 33939 ft | 439 kts | 344° |
| 2026-04-25 15:15 | 37.86371 | 9.91271 | 34219 ft | 439 kts | 344° |
| 2026-04-25 15:15 | 37.89330 | 9.90329 | 34484 ft | 439 kts | 344° |
| 2026-04-25 15:15 | 37.92287 | 9.89386 | 34750 ft | 438 kts | 344° |
| 2026-04-25 15:16 | 37.95242 | 9.88440 | 34996 ft | 438 kts | 344° |
| 2026-04-25 15:16 | 37.98196 | 9.87492 | 35234 ft | 437 kts | 344° |
| 2026-04-25 15:16 | 38.04052 | 9.85610 | 35698 ft | 437 kts | 344° |
| 2026-04-25 15:17 | 38.09942 | 9.83721 | 36092 ft | 437 kts | 344° |
| 2026-04-25 15:17 | 38.12897 | 9.82771 | 36138 ft | 437 kts | 344° |
| 2026-04-25 15:18 | 38.18789 | 9.80880 | 36133 ft | 437 kts | 344° |
| 2026-04-25 15:18 | 38.27624 | 9.78041 | 36135 ft | 437 kts | 344° |
| 2026-04-25 15:19 | 38.31575 | 9.76774 | 36135 ft | 438 kts | 344° |
| 2026-04-25 15:19 | 38.39447 | 9.74251 | 36142 ft | 438 kts | 344° |
| 2026-04-25 15:20 | 38.45361 | 9.72344 | 36138 ft | 438 kts | 344° |
| 2026-04-25 15:20 | 38.51275 | 9.70437 | 36142 ft | 438 kts | 344° |
| 2026-04-25 15:21 | 38.57191 | 9.68525 | 36134 ft | 439 kts | 344° |
| 2026-04-25 15:21 | 38.63071 | 9.66627 | 36131 ft | 439 kts | 345° |
| 2026-04-25 15:22 | 38.68995 | 9.64712 | 36128 ft | 439 kts | 344° |
| 2026-04-25 15:22 | 38.74923 | 9.62791 | 36134 ft | 440 kts | 345° |
| 2026-04-25 15:23 | 38.80850 | 9.60863 | 36130 ft | 440 kts | 345° |
| 2026-04-25 15:23 | 38.86788 | 9.58931 | 36131 ft | 441 kts | 345° |
| 2026-04-25 15:24 | 38.92735 | 9.56981 | 36132 ft | 441 kts | 344° |
| 2026-04-25 15:24 | 38.96701 | 9.55639 | 36138 ft | 441 kts | 344° |
| 2026-04-25 15:25 | 39.04599 | 9.52927 | 36131 ft | 442 kts | 344° |
| 2026-04-25 15:25 | 39.10542 | 9.50896 | 36128 ft | 442 kts | 344° |
| 2026-04-25 15:26 | 39.16456 | 9.48884 | 36131 ft | 442 kts | 344° |
| 2026-04-25 15:26 | 39.22407 | 9.46852 | 36136 ft | 442 kts | 345° |
| 2026-04-25 15:27 | 39.28357 | 9.44818 | 36136 ft | 442 kts | 344° |
| 2026-04-25 15:28 | 39.37256 | 9.41761 | 36137 ft | 441 kts | 344° |
| 2026-04-25 15:28 | 39.43188 | 9.39713 | 36135 ft | 441 kts | 344° |
| 2026-04-25 15:29 | 39.49122 | 9.37671 | 36118 ft | 441 kts | 345° |
| 2026-04-25 15:29 | 39.55052 | 9.35627 | 36125 ft | 441 kts | 345° |
| 2026-04-25 15:30 | 39.59986 | 9.33918 | 36119 ft | 441 kts | 345° |
| 2026-04-25 15:30 | 39.66922 | 9.31515 | 36122 ft | 442 kts | 345° |
| 2026-04-25 15:31 | 39.72865 | 9.29451 | 36123 ft | 442 kts | 345° |
| 2026-04-25 15:31 | 39.78803 | 9.27383 | 36119 ft | 442 kts | 345° |
| 2026-04-25 15:32 | 39.84743 | 9.25312 | 36122 ft | 442 kts | 345° |
| 2026-04-25 15:32 | 39.90683 | 9.23238 | 36115 ft | 442 kts | 345° |
| 2026-04-25 15:33 | 39.99591 | 9.20117 | 36112 ft | 442 kts | 345° |
| 2026-04-25 15:33 | 40.05531 | 9.18045 | 36108 ft | 442 kts | 345° |
| 2026-04-25 15:34 | 40.11469 | 9.15968 | 36101 ft | 442 kts | 345° |
| 2026-04-25 15:34 | 40.15411 | 9.14577 | 36100 ft | 442 kts | 345° |
| 2026-04-25 15:35 | 40.26341 | 9.10726 | 36095 ft | 443 kts | 345° |
| 2026-04-25 15:36 | 40.35226 | 9.07587 | 36089 ft | 442 kts | 345° |
| 2026-04-25 15:36 | 40.41205 | 9.05468 | 36098 ft | 442 kts | 345° |
| 2026-04-25 15:37 | 40.47137 | 9.03358 | 36097 ft | 442 kts | 345° |
| 2026-04-25 15:37 | 40.52064 | 9.01602 | 36099 ft | 441 kts | 345° |
| 2026-04-25 15:38 | 40.57992 | 8.99484 | 36096 ft | 441 kts | 345° |
| 2026-04-25 15:38 | 40.63920 | 8.97373 | 36096 ft | 441 kts | 345° |
| 2026-04-25 15:39 | 40.69842 | 8.95259 | 36094 ft | 441 kts | 345° |
| 2026-04-25 15:39 | 40.75762 | 8.93139 | 36098 ft | 441 kts | 345° |
| 2026-04-25 15:40 | 40.80681 | 8.91370 | 36095 ft | 441 kts | 345° |
| 2026-04-25 15:40 | 40.87595 | 8.88878 | 36096 ft | 441 kts | 345° |
| 2026-04-25 15:41 | 40.93514 | 8.86758 | 36103 ft | 441 kts | 345° |
| 2026-04-25 15:41 | 40.99506 | 8.85145 | 36096 ft | 439 kts | 357° |
| 2026-04-25 15:42 | 41.05616 | 8.85041 | 36096 ft | 439 kts | 360° |
| 2026-04-25 15:42 | 41.11705 | 8.84971 | 36088 ft | 440 kts | 360° |
| 2026-04-25 15:43 | 41.17830 | 8.84899 | 36087 ft | 440 kts | 360° |
| 2026-04-25 15:43 | 41.23947 | 8.84711 | 36086 ft | 440 kts | 354° |
| 2026-04-25 15:44 | 41.29880 | 8.82739 | 36086 ft | 441 kts | 342° |
| 2026-04-25 15:44 | 41.35702 | 8.80178 | 36083 ft | 441 kts | 342° |
| 2026-04-25 15:45 | 41.41520 | 8.77594 | 36097 ft | 441 kts | 342° |
| 2026-04-25 15:45 | 41.46347 | 8.75429 | 36092 ft | 441 kts | 342° |
| 2026-04-25 15:46 | 41.53144 | 8.72386 | 36094 ft | 441 kts | 342° |
| 2026-04-25 15:46 | 41.58958 | 8.69784 | 36094 ft | 440 kts | 342° |
| 2026-04-25 15:47 | 41.64765 | 8.67170 | 36116 ft | 440 kts | 342° |
| 2026-04-25 15:47 | 41.70569 | 8.64557 | 36103 ft | 440 kts | 341° |
| 2026-04-25 15:48 | 41.76367 | 8.61938 | 36109 ft | 440 kts | 341° |
| 2026-04-25 15:48 | 41.82172 | 8.59316 | 36105 ft | 440 kts | 341° |
| 2026-04-25 15:49 | 41.87978 | 8.56701 | 36106 ft | 440 kts | 341° |
| 2026-04-25 15:49 | 41.93782 | 8.54068 | 36103 ft | 440 kts | 341° |
| 2026-04-25 15:50 | 41.99580 | 8.51431 | 36106 ft | 440 kts | 341° |
| 2026-04-25 15:50 | 42.05383 | 8.48780 | 36104 ft | 440 kts | 341° |
| 2026-04-25 15:51 | 42.10208 | 8.46587 | 36109 ft | 440 kts | 341° |
| 2026-04-25 15:51 | 42.16990 | 8.43501 | 36107 ft | 441 kts | 341° |
| 2026-04-25 15:52 | 42.22759 | 8.40859 | 36107 ft | 440 kts | 341° |
| 2026-04-25 15:52 | 42.28557 | 8.38189 | 36103 ft | 441 kts | 341° |
| 2026-04-25 15:53 | 42.34257 | 8.35187 | 36109 ft | 439 kts | 330° |
| 2026-04-25 15:53 | 42.39592 | 8.31181 | 36104 ft | 439 kts | 330° |
| 2026-04-25 15:54 | 42.44939 | 8.27176 | 36103 ft | 439 kts | 330° |
| 2026-04-25 15:54 | 42.50285 | 8.23169 | 36106 ft | 439 kts | 330° |
| 2026-04-25 15:55 | 42.55627 | 8.19161 | 36101 ft | 439 kts | 330° |
| 2026-04-25 15:55 | 42.60967 | 8.15134 | 36099 ft | 439 kts | 330° |
| 2026-04-25 15:56 | 42.66300 | 8.11100 | 36108 ft | 439 kts | 330° |
| 2026-04-25 15:56 | 42.71638 | 8.07066 | 36105 ft | 439 kts | 330° |
| 2026-04-25 15:57 | 42.76971 | 8.03026 | 36102 ft | 439 kts | 329° |
| 2026-04-25 15:57 | 42.82298 | 7.98985 | 36100 ft | 439 kts | 329° |
| 2026-04-25 15:58 | 42.87624 | 7.94929 | 36099 ft | 439 kts | 329° |
| 2026-04-25 15:58 | 42.92947 | 7.90855 | 36094 ft | 439 kts | 329° |
| 2026-04-25 15:59 | 42.98273 | 7.86784 | 36095 ft | 439 kts | 329° |
| 2026-04-25 15:59 | 43.03605 | 7.82714 | 36087 ft | 439 kts | 329° |
| 2026-04-25 16:00 | 43.07165 | 7.79987 | 36089 ft | 439 kts | 329° |
| 2026-04-25 16:00 | 43.14240 | 7.74540 | 36090 ft | 438 kts | 329° |
| 2026-04-25 16:01 | 43.19549 | 7.70421 | 36088 ft | 438 kts | 329° |
| 2026-04-25 16:01 | 43.24855 | 7.66315 | 36090 ft | 438 kts | 329° |
| 2026-04-25 16:02 | 43.30151 | 7.62207 | 36083 ft | 438 kts | 329° |
| 2026-04-25 16:02 | 43.35457 | 7.58085 | 36077 ft | 437 kts | 328° |
| 2026-04-25 16:03 | 43.40742 | 7.53964 | 36084 ft | 437 kts | 329° |
| 2026-04-25 16:03 | 43.46030 | 7.49835 | 36076 ft | 437 kts | 329° |
| 2026-04-25 16:04 | 43.51317 | 7.45697 | 36071 ft | 437 kts | 329° |
| 2026-04-25 16:04 | 43.56595 | 7.41547 | 36070 ft | 437 kts | 329° |
| 2026-04-25 16:05 | 43.61875 | 7.37391 | 36078 ft | 437 kts | 328° |
| 2026-04-25 16:06 | 43.69544 | 7.30645 | 36079 ft | 435 kts | 324° |
| 2026-04-25 16:06 | 43.74544 | 7.25910 | 36078 ft | 435 kts | 324° |
| 2026-04-25 16:07 | 43.79570 | 7.21225 | 36076 ft | 435 kts | 324° |
| 2026-04-25 16:07 | 43.84614 | 7.16584 | 36080 ft | 435 kts | 324° |
| 2026-04-25 16:08 | 43.89665 | 7.11953 | 36072 ft | 435 kts | 324° |
| 2026-04-25 16:08 | 43.94703 | 7.07313 | 36063 ft | 435 kts | 324° |
| 2026-04-25 16:09 | 43.99733 | 7.02650 | 36056 ft | 435 kts | 324° |
| 2026-04-25 16:09 | 44.04766 | 6.97970 | 36061 ft | 434 kts | 324° |
| 2026-04-25 16:10 | 44.09781 | 6.93301 | 36058 ft | 433 kts | 324° |
| 2026-04-25 16:10 | 44.14761 | 6.88671 | 36054 ft | 433 kts | 324° |
| 2026-04-25 16:11 | 44.19771 | 6.84000 | 36044 ft | 433 kts | 324° |
| 2026-04-25 16:11 | 44.24771 | 6.79315 | 36046 ft | 433 kts | 324° |
| 2026-04-25 16:12 | 44.29767 | 6.74630 | 36046 ft | 433 kts | 324° |
| 2026-04-25 16:12 | 44.34761 | 6.69932 | 36047 ft | 433 kts | 324° |
| 2026-04-25 16:13 | 44.39747 | 6.65238 | 36030 ft | 433 kts | 324° |
| 2026-04-25 16:13 | 44.43831 | 6.61376 | 36038 ft | 432 kts | 324° |
| 2026-04-25 16:14 | 44.47148 | 6.58228 | 36036 ft | 432 kts | 324° |
| 2026-04-25 16:14 | 44.52134 | 6.53513 | 36032 ft | 432 kts | 324° |
| 2026-04-25 16:15 | 44.57117 | 6.48806 | 36030 ft | 432 kts | 324° |
| 2026-04-25 16:15 | 44.62124 | 6.44045 | 36031 ft | 432 kts | 324° |
| 2026-04-25 16:16 | 44.67068 | 6.39337 | 36031 ft | 432 kts | 324° |
| 2026-04-25 16:16 | 44.72074 | 6.34548 | 36033 ft | 432 kts | 324° |
| 2026-04-25 16:17 | 44.77013 | 6.29822 | 36032 ft | 433 kts | 324° |
| 2026-04-25 16:17 | 44.81991 | 6.25052 | 36032 ft | 433 kts | 324° |
| 2026-04-25 16:18 | 44.86964 | 6.20278 | 36053 ft | 433 kts | 324° |
| 2026-04-25 16:18 | 44.91943 | 6.15499 | 36061 ft | 433 kts | 324° |
| 2026-04-25 16:19 | 44.96914 | 6.10699 | 36056 ft | 432 kts | 324° |
| 2026-04-25 16:19 | 45.01874 | 6.05895 | 36062 ft | 432 kts | 323° |
| 2026-04-25 16:20 | 45.09301 | 5.98699 | 36067 ft | 431 kts | 324° |
| 2026-04-25 16:21 | 45.15882 | 5.92315 | 36064 ft | 431 kts | 324° |
| 2026-04-25 16:21 | 45.20828 | 5.87492 | 36062 ft | 431 kts | 323° |
| 2026-04-25 16:22 | 45.25771 | 5.82666 | 36059 ft | 431 kts | 323° |
| 2026-04-25 16:22 | 45.30708 | 5.77832 | 36051 ft | 431 kts | 323° |
| 2026-04-25 16:23 | 45.35646 | 5.72991 | 36044 ft | 431 kts | 323° |
| 2026-04-25 16:23 | 45.40586 | 5.68143 | 36042 ft | 432 kts | 323° |
| 2026-04-25 16:24 | 45.45530 | 5.63279 | 36054 ft | 432 kts | 323° |
| 2026-04-25 16:24 | 45.50468 | 5.58391 | 36064 ft | 432 kts | 323° |
| 2026-04-25 16:25 | 45.55395 | 5.53500 | 36062 ft | 432 kts | 323° |
| 2026-04-25 16:25 | 45.60413 | 5.48782 | 36058 ft | 432 kts | 326° |
| 2026-04-25 16:26 | 45.65545 | 5.44300 | 36054 ft | 433 kts | 327° |
| 2026-04-25 16:26 | 45.70688 | 5.39802 | 36058 ft | 433 kts | 326° |
| 2026-04-25 16:27 | 45.75802 | 5.35234 | 36061 ft | 433 kts | 326° |
| 2026-04-25 16:27 | 45.80903 | 5.30638 | 36065 ft | 433 kts | 326° |
| 2026-04-25 16:28 | 45.86002 | 5.26026 | 36075 ft | 433 kts | 326° |
| 2026-04-25 16:28 | 45.91075 | 5.21439 | 36076 ft | 433 kts | 326° |
| 2026-04-25 16:29 | 45.96171 | 5.16837 | 36075 ft | 433 kts | 326° |
| 2026-04-25 16:29 | 46.01264 | 5.12217 | 36071 ft | 432 kts | 326° |
| 2026-04-25 16:30 | 46.06508 | 5.07964 | 36074 ft | 435 kts | 334° |
| 2026-04-25 16:30 | 46.12049 | 5.04460 | 36072 ft | 435 kts | 334° |
| 2026-04-25 16:31 | 46.17590 | 5.00928 | 36072 ft | 435 kts | 334° |
| 2026-04-25 16:31 | 46.23127 | 4.97388 | 36074 ft | 435 kts | 334° |
| 2026-04-25 16:32 | 46.28667 | 4.93851 | 36081 ft | 435 kts | 334° |
| 2026-04-25 16:32 | 46.34206 | 4.90302 | 36083 ft | 435 kts | 334° |
| 2026-04-25 16:33 | 46.39736 | 4.86742 | 36079 ft | 435 kts | 334° |
| 2026-04-25 16:33 | 46.45267 | 4.83180 | 36077 ft | 435 kts | 334° |
| 2026-04-25 16:34 | 46.50798 | 4.79609 | 36084 ft | 435 kts | 334° |
| 2026-04-25 16:34 | 46.56331 | 4.76030 | 36082 ft | 435 kts | 334° |
| 2026-04-25 16:35 | 46.61863 | 4.72435 | 36080 ft | 436 kts | 333° |
| 2026-04-25 16:35 | 46.67399 | 4.68837 | 36085 ft | 436 kts | 333° |
| 2026-04-25 16:36 | 46.72932 | 4.65225 | 36083 ft | 436 kts | 333° |
| 2026-04-25 16:36 | 46.78471 | 4.61617 | 36083 ft | 436 kts | 333° |